Time;durP1;ratioP1;P1;durP2;ratioP2;P2;SDS_P1;SDS_P2;PMS_P1;PMS_P2;Temp;Humidity;BMP_temperature;BMP_pressure;BME280_temperature;BME280_humidity;BME280_pressure;Samples;Min_cycle;Max_cycle;Signal;HPM_P1;HPM_P2
2021/08/13 00:00:44;;;;;;;8.57;7.30;;;18.70;85.30;;;;;;5032715;28;20096;-67
2021/08/13 00:03:10;;;;;;;9.57;6.97;;;18.70;85.40;;;;;;5031669;28;20532;-67
2021/08/13 00:05:36;;;;;;;9.73;7.13;;;18.70;85.40;;;;;;5032451;28;20081;-67
2021/08/13 00:08:02;;;;;;;8.30;6.40;;;18.70;85.50;;;;;;5032332;28;20057;-67
2021/08/13 00:10:28;;;;;;;8.47;6.53;;;18.70;85.60;;;;;;5031739;28;20401;-67
2021/08/13 00:12:53;;;;;;;7.33;6.50;;;18.70;85.80;;;;;;5032740;28;20049;-67
2021/08/13 00:15:19;;;;;;;9.53;6.50;;;18.70;86.00;;;;;;5032161;28;20466;-67
2021/08/13 00:17:44;;;;;;;8.57;6.97;;;18.70;86.20;;;;;;4996684;28;1017101;-67
2021/08/13 00:20:11;;;;;;;8.23;7.13;;;18.60;86.40;;;;;;5032966;28;20045;-68
2021/08/13 00:22:37;;;;;;;10.30;7.63;;;18.60;86.60;;;;;;5033077;28;20088;-67
2021/08/13 00:25:03;;;;;;;10.23;7.33;;;18.60;86.70;;;;;;5032034;28;20096;-67
2021/08/13 00:27:28;;;;;;;7.43;5.50;;;18.60;86.90;;;;;;5033277;28;20049;-67
2021/08/13 00:29:54;;;;;;;8.13;6.50;;;18.50;87.60;;;;;;5033221;28;20053;-67
2021/08/13 00:32:20;;;;;;;7.47;6.30;;;18.50;88.40;;;;;;5031783;28;20176;-67
2021/08/13 00:34:45;;;;;;;6.20;5.13;;;18.40;88.90;;;;;;5033024;28;20045;-67
2021/08/13 00:37:11;;;;;;;7.67;6.03;;;18.40;89.30;;;;;;5032454;28;20096;-67
2021/08/13 00:39:36;;;;;;;7.90;5.53;;;18.20;89.80;;;;;;5031941;28;20609;-67
2021/08/13 00:42:03;;;;;;;6.90;5.60;;;18.10;90.10;;;;;;5032356;28;20058;-67
2021/08/13 00:44:30;;;;;;;8.37;6.10;;;18.00;90.50;;;;;;5031900;28;20077;-67
2021/08/13 00:46:55;;;;;;;10.43;8.50;;;17.90;90.80;;;;;;5032132;28;20056;-67
2021/08/13 00:49:22;;;;;;;10.63;8.40;;;17.80;91.00;;;;;;5032270;28;20049;-67
2021/08/13 00:51:48;;;;;;;10.20;8.43;;;17.80;91.20;;;;;;5032477;28;20057;-67
2021/08/13 00:54:13;;;;;;;11.50;10.10;;;17.70;91.20;;;;;;5031557;28;20402;-68
2021/08/13 00:56:39;;;;;;;11.20;9.80;;;17.70;91.30;;;;;;5032750;28;20045;-67
2021/08/13 00:59:09;;;;;;;11.00;8.50;;;17.70;91.70;;;;;;5032502;28;20053;-67
2021/08/13 01:01:35;;;;;;;9.63;8.63;;;17.70;91.30;;;;;;5031692;28;20508;-67
2021/08/13 01:04:03;;;;;;;12.57;9.37;;;17.70;91.40;;;;;;5031983;28;20099;-67
2021/08/13 01:06:28;;;;;;;9.30;7.77;;;17.70;91.40;;;;;;5031422;28;20060;-67
2021/08/13 01:08:54;;;;;;;9.17;8.27;;;17.70;91.50;;;;;;5032076;28;20053;-67
2021/08/13 01:11:37;;;;;;;11.03;7.60;;;17.70;91.70;;;;;;5032560;28;20107;-67
2021/08/13 01:14:10;;;;;;;8.50;7.23;;;17.70;91.80;;;;;;5031263;28;20053;-68
2021/08/13 01:16:40;;;;;;;10.10;8.20;;;17.60;91.90;;;;;;5032208;28;20099;-68
2021/08/13 01:19:15;;;;;;;13.00;11.70;;;17.60;92.10;;;;;;5031621;28;20053;-68
2021/08/13 01:21:40;;;;;;;11.47;8.50;;;17.50;92.10;;;;;;5031220;28;20479;-67
2021/08/13 01:24:11;;;;;;;9.30;7.03;;;17.50;92.10;;;;;;5031878;28;20056;-67
2021/08/13 01:26:51;;;;;;;13.02;10.23;;;17.50;92.20;;;;;;5032006;28;20498;-68
2021/08/13 01:29:33;;;;;;;13.97;11.70;;;17.40;92.30;;;;;;5030901;28;20068;-67
2021/08/13 01:32:12;;;;;;;13.00;10.63;;;17.30;92.40;;;;;;5032085;28;20088;-67
2021/08/13 01:34:44;;;;;;;10.43;9.30;;;17.40;92.40;;;;;;5031062;28;20056;-67
2021/08/13 01:37:12;;;;;;;10.53;8.70;;;17.40;92.40;;;;;;5031220;28;20406;-67
2021/08/13 01:39:38;;;;;;;13.47;10.00;;;17.30;92.50;;;;;;5031701;28;20089;-67
2021/08/13 01:42:06;;;;;;;11.37;10.20;;;17.30;92.70;;;;;;5030529;28;20046;-67
2021/08/13 01:44:33;;;;;;;11.27;8.80;;;17.20;92.70;;;;;;5031780;28;20061;-67
2021/08/13 01:47:00;;;;;;;13.70;10.50;;;17.20;92.70;;;;;;5031440;28;20081;-67
2021/08/13 01:49:27;;;;;;;12.53;11.23;;;17.30;92.70;;;;;;5030919;28;20124;-67
2021/08/13 01:51:54;;;;;;;11.07;9.97;;;17.30;92.60;;;;;;5031445;28;20054;-68
2021/08/13 01:54:21;;;;;;;13.10;11.00;;;17.30;92.50;;;;;;5031028;28;20045;-68
2021/08/13 01:56:48;;;;;;;12.90;10.60;;;17.30;92.50;;;;;;5030438;28;20053;-67
2021/08/13 01:59:14;;;;;;;12.80;10.83;;;17.40;92.30;;;;;;5031290;28;20430;-67
2021/08/13 02:01:40;;;;;;;13.17;10.97;;;17.40;92.20;;;;;;5031389;28;20466;-67
2021/08/13 02:04:07;;;;;;;15.33;11.70;;;17.40;92.10;;;;;;5030319;28;20046;-67
2021/08/13 02:06:34;;;;;;;13.57;12.03;;;17.40;92.10;;;;;;5031166;28;20069;-67
2021/08/13 02:09:02;;;;;;;12.90;10.87;;;17.50;92.00;;;;;;5030933;28;20057;-67
2021/08/13 02:11:28;;;;;;;15.50;12.03;;;17.50;91.90;;;;;;5030737;28;20054;-67
2021/08/13 02:13:55;;;;;;;14.20;11.50;;;17.50;91.80;;;;;;5031435;28;20406;-67
2021/08/13 02:16:30;;;;;;;15.47;10.83;;;17.50;91.70;;;;;;5031112;28;20042;-67
2021/08/13 02:19:06;;;;;;;15.10;11.70;;;17.50;91.70;;;;;;5030399;28;20112;-67
2021/08/13 02:21:36;;;;;;;13.67;11.67;;;17.50;91.70;;;;;;5031418;28;20463;-67
2021/08/13 02:24:04;;;;;;;14.83;12.10;;;17.50;91.70;;;;;;5030495;28;20498;-67
2021/08/13 02:26:31;;;;;;;15.27;13.67;;;17.50;91.70;;;;;;5031178;28;20055;-67
2021/08/13 02:28:57;;;;;;;13.90;12.40;;;17.50;91.70;;;;;;5031813;28;20088;-67
2021/08/13 02:31:23;;;;;;;13.53;11.70;;;17.50;91.70;;;;;;5030174;28;20355;-67
2021/08/13 02:33:49;;;;;;;13.73;11.97;;;17.50;91.70;;;;;;5031166;28;20453;-67
2021/08/13 02:36:16;;;;;;;13.63;11.97;;;17.40;91.80;;;;;;5030821;28;20061;-67
2021/08/13 02:39:01;;;;;;;16.43;13.60;;;17.40;91.80;;;;;;5030637;28;20102;-67
2021/08/13 02:41:32;;;;;;;14.57;12.67;;;17.40;91.90;;;;;;5031063;28;20410;-67
2021/08/13 02:44:02;;;;;;;14.20;12.53;;;17.30;92.00;;;;;;5031004;28;20069;-67
2021/08/13 02:46:54;;;;;;;16.52;13.25;;;17.30;92.00;;;;;;5030243;28;20084;-67
2021/08/13 02:49:22;;;;;;;14.10;12.60;;;17.30;92.10;;;;;;5030773;28;20053;-67
2021/08/13 02:51:56;;;;;;;18.93;15.13;;;17.20;92.10;;;;;;5030254;28;20136;-67
2021/08/13 02:54:25;;;;;;;16.37;14.67;;;17.20;92.20;;;;;;5030812;28;20054;-67
2021/08/13 02:56:56;;;;;;;15.53;13.87;;;17.10;92.30;;;;;;5030763;28;20060;-68
2021/08/13 02:59:24;;;;;;;18.43;14.10;;;17.10;92.40;;;;;;5029726;28;20060;-67
2021/08/13 03:01:52;;;;;;;17.40;14.70;;;17.00;92.50;;;;;;5030926;28;20156;-67
2021/08/13 03:04:19;;;;;;;18.00;14.83;;;17.00;92.60;;;;;;5030492;28;20077;-67
2021/08/13 03:06:48;;;;;;;17.23;15.30;;;16.90;92.70;;;;;;5030022;28;20129;-67
2021/08/13 03:09:16;;;;;;;16.97;14.70;;;16.90;92.80;;;;;;5033906;28;20454;-67
2021/08/13 03:11:44;;;;;;;18.20;15.23;;;16.90;92.80;;;;;;5034144;28;20045;-67
2021/08/13 03:14:10;;;;;;;17.83;15.90;;;16.90;92.90;;;;;;5033707;28;20056;-67
2021/08/13 03:16:37;;;;;;;19.57;16.30;;;16.80;92.90;;;;;;5034136;28;20057;-67
2021/08/13 03:19:04;;;;;;;16.67;14.93;;;16.90;92.90;;;;;;5033961;28;20108;-67
2021/08/13 03:21:30;;;;;;;19.63;16.00;;;16.80;92.90;;;;;;5033380;28;20088;-67
2021/08/13 03:23:56;;;;;;;17.93;15.83;;;16.80;93.00;;;;;;5034013;28;20069;-67
2021/08/13 03:26:24;;;;;;;17.90;15.17;;;16.80;93.00;;;;;;5033905;28;20081;-68
2021/08/13 03:28:50;;;;;;;19.57;15.37;;;16.80;93.10;;;;;;5033436;28;20095;-67
2021/08/13 03:31:41;;;;;;;19.53;15.77;;;16.80;93.10;;;;;;5034021;28;20049;-67
2021/08/13 03:34:09;;;;;;;19.13;15.95;;;16.80;93.10;;;;;;5033112;28;20077;-67
2021/08/13 03:36:36;;;;;;;18.50;16.53;;;16.80;93.20;;;;;;5033721;28;20147;-67
2021/08/13 03:39:06;;;;;;;18.47;16.47;;;16.70;93.20;;;;;;5033709;28;20049;-67
2021/08/13 03:41:32;;;;;;;19.03;15.97;;;16.70;93.30;;;;;;5033318;28;20060;-67
2021/08/13 03:43:58;;;;;;;19.50;17.17;;;16.70;93.30;;;;;;5034002;28;20296;-67
2021/08/13 03:46:24;;;;;;;19.43;17.33;;;16.70;93.30;;;;;;5033236;28;20505;-67
2021/08/13 03:48:50;;;;;;;19.10;17.07;;;16.70;93.40;;;;;;5033130;28;20157;-67
2021/08/13 03:51:15;;;;;;;20.53;16.93;;;16.70;93.40;;;;;;5033525;28;20179;-67
2021/08/13 03:53:41;;;;;;;18.93;16.90;;;16.60;93.40;;;;;;5033660;28;20050;-67
2021/08/13 03:56:07;;;;;;;17.80;15.90;;;16.60;93.50;;;;;;5032675;28;20049;-67
2021/08/13 03:58:32;;;;;;;19.77;17.00;;;16.60;93.50;;;;;;5033551;28;20411;-67
2021/08/13 04:01:06;;;;;;;20.02;16.55;;;16.50;93.60;;;;;;5033384;28;20068;-67
2021/08/13 04:03:32;;;;;;;18.70;16.00;;;16.50;93.70;;;;;;5032668;28;20076;-67
2021/08/13 04:05:58;;;;;;;19.30;17.30;;;16.50;93.70;;;;;;5033097;28;20089;-67
2021/08/13 04:08:24;;;;;;;19.53;17.30;;;16.50;93.80;;;;;;5033115;28;20042;-67
2021/08/13 04:10:50;;;;;;;19.70;17.30;;;16.50;93.80;;;;;;5032866;28;20053;-67
2021/08/13 04:13:16;;;;;;;19.97;17.83;;;16.50;93.90;;;;;;5033066;28;20060;-67
2021/08/13 04:15:41;;;;;;;20.83;17.73;;;16.50;93.90;;;;;;5033238;28;20115;-67
2021/08/13 04:18:07;;;;;;;21.10;18.37;;;16.50;93.90;;;;;;5031789;28;20065;-67
2021/08/13 04:20:33;;;;;;;20.00;17.87;;;16.50;94.00;;;;;;5032210;28;20129;-67
2021/08/13 04:22:59;;;;;;;20.30;18.20;;;16.40;94.00;;;;;;5033164;28;20561;-67
2021/08/13 04:25:24;;;;;;;20.80;18.50;;;16.40;94.00;;;;;;5032448;28;20057;-67
2021/08/13 04:27:50;;;;;;;20.60;18.47;;;16.40;94.00;;;;;;5032980;28;20470;-67
2021/08/13 04:30:16;;;;;;;23.47;19.23;;;16.40;94.10;;;;;;5031938;28;20064;-67
2021/08/13 04:32:41;;;;;;;19.27;17.27;;;16.40;94.10;;;;;;5036479;28;20128;-66
2021/08/13 04:35:08;;;;;;;20.10;17.70;;;16.30;94.10;;;;;;5036743;28;20049;-66
2021/08/13 04:37:34;;;;;;;19.60;17.57;;;16.30;94.10;;;;;;5031922;28;20824;-66
2021/08/13 04:40:00;;;;;;;20.03;17.60;;;16.30;94.20;;;;;;5032727;28;20049;-67
2021/08/13 04:42:30;;;;;;;20.33;17.67;;;16.30;94.20;;;;;;5032916;28;20053;-66
2021/08/13 04:44:56;;;;;;;20.97;18.63;;;16.30;94.20;;;;;;5031831;28;20390;-67
2021/08/13 04:47:22;;;;;;;21.70;19.40;;;16.30;94.30;;;;;;5032176;28;20053;-66
2021/08/13 04:49:47;;;;;;;20.77;18.57;;;16.30;94.30;;;;;;5032825;28;20136;-67
2021/08/13 04:52:14;;;;;;;22.47;20.07;;;16.30;94.30;;;;;;5031651;28;20049;-67
2021/08/13 04:54:46;;;;;;;20.43;18.20;;;16.30;94.40;;;;;;5032417;28;20045;-66
2021/08/13 04:57:12;;;;;;;21.57;19.20;;;16.30;94.40;;;;;;5032404;28;20459;-67
2021/08/13 04:59:42;;;;;;;22.87;19.00;;;16.30;94.40;;;;;;5031595;28;20140;-67
2021/08/13 05:02:10;;;;;;;21.77;19.27;;;16.40;94.40;;;;;;5031961;28;20057;-67
2021/08/13 05:04:36;;;;;;;21.90;18.43;;;16.40;94.40;;;;;;5032425;28;20123;-67
2021/08/13 05:07:02;;;;;;;22.57;19.17;;;16.50;94.30;;;;;;5031109;28;20482;-68
2021/08/13 05:09:28;;;;;;;22.30;19.60;;;16.50;94.20;;;;;;5032310;28;20049;-67
2021/08/13 05:11:54;;;;;;;22.00;19.67;;;16.50;94.20;;;;;;5032147;28;20107;-67
2021/08/13 05:14:24;;;;;;;21.23;18.93;;;16.60;94.20;;;;;;5030898;28;20133;-67
2021/08/13 05:16:50;;;;;;;21.73;19.17;;;16.60;94.10;;;;;;5031656;28;20128;-68
2021/08/13 05:19:17;;;;;;;22.37;19.47;;;16.70;94.10;;;;;;5031487;28;20118;-67
2021/08/13 05:21:42;;;;;;;22.40;19.90;;;16.70;94.10;;;;;;5031113;28;20494;-66
2021/08/13 05:24:08;;;;;;;26.20;21.00;;;16.70;94.10;;;;;;5031135;28;20046;-67
2021/08/13 05:26:34;;;;;;;23.30;20.23;;;16.80;94.10;;;;;;5030771;28;20049;-67
2021/08/13 05:29:08;;;;;;;22.47;19.33;;;16.80;94.00;;;;;;5030835;28;20064;-67
2021/08/13 05:31:44;;;;;;;23.97;21.37;;;16.90;94.00;;;;;;5031506;28;20053;-66
2021/08/13 05:34:10;;;;;;;24.00;19.77;;;16.90;94.00;;;;;;5030270;28;20398;-66
2021/08/13 05:36:39;;;;;;;23.80;20.97;;;17.00;94.10;;;;;;5047909;28;20083;-67
2021/08/13 05:39:04;;;;;;;24.73;20.40;;;17.10;93.90;;;;;;5050890;28;20111;-67
2021/08/13 05:41:30;;;;;;;22.83;19.70;;;17.10;93.80;;;;;;5050439;28;20106;-67
2021/08/13 05:43:56;;;;;;;21.57;19.27;;;17.10;93.70;;;;;;5051403;28;20080;-66
2021/08/13 05:46:22;;;;;;;24.00;20.27;;;17.20;93.80;;;;;;5051083;28;20456;-67
2021/08/13 05:48:47;;;;;;;23.60;20.90;;;17.30;93.80;;;;;;5047119;28;20045;-66
2021/08/13 05:51:13;;;;;;;25.57;20.83;;;17.30;93.60;;;;;;5051226;28;20049;-67
2021/08/13 05:53:39;;;;;;;23.27;20.80;;;17.40;93.50;;;;;;5044154;28;20036;-66
2021/08/13 05:56:05;;;;;;;22.03;19.73;;;17.40;93.40;;;;;;5039850;28;20156;-67
2021/08/13 05:58:31;;;;;;;24.10;20.57;;;17.40;93.40;;;;;;5042316;28;20124;-67
2021/08/13 06:00:57;;;;;;;22.43;18.80;;;17.40;93.50;;;;;;5051500;28;20087;-66
2021/08/13 06:03:23;;;;;;;22.53;19.43;;;17.40;93.40;;;;;;5042591;28;20076;-66
2021/08/13 06:05:49;;;;;;;24.23;21.27;;;17.50;93.50;;;;;;5046794;28;20498;-66
2021/08/13 06:08:14;;;;;;;25.80;20.30;;;17.60;93.40;;;;;;5047600;28;20493;-69
2021/08/13 06:10:43;;;;;;;23.13;20.60;;;17.60;93.40;;;;;;5046454;28;20045;-67
2021/08/13 06:13:09;;;;;;;22.87;19.90;;;17.70;93.40;;;;;;5045584;28;20477;-67
2021/08/13 06:15:35;;;;;;;24.83;19.33;;;17.80;93.30;;;;;;5046800;28;20052;-67
2021/08/13 06:18:01;;;;;;;24.80;20.07;;;17.90;93.20;;;;;;5046718;28;20057;-69
2021/08/13 06:20:26;;;;;;;21.80;18.40;;;18.00;93.10;;;;;;5047262;28;20555;-66
2021/08/13 06:22:52;;;;;;;22.60;19.90;;;18.10;93.00;;;;;;5046667;28;20103;-66
2021/08/13 06:25:18;;;;;;;21.90;18.83;;;18.20;92.90;;;;;;5046805;28;20159;-67
2021/08/13 06:27:45;;;;;;;22.60;18.33;;;18.30;92.80;;;;;;5047645;28;20131;-66
2021/08/13 06:30:12;;;;;;;19.27;16.33;;;18.30;92.60;;;;;;5046205;28;20051;-66
2021/08/13 06:32:39;;;;;;;21.33;18.90;;;18.40;92.50;;;;;;5047244;28;20049;-66
2021/08/13 06:35:06;;;;;;;18.93;16.93;;;18.40;92.40;;;;;;5047322;28;20544;-67
2021/08/13 06:37:32;;;;;;;20.83;18.13;;;18.50;92.80;;;;;;5046972;28;20041;-66
2021/08/13 06:39:57;;;;;;;20.80;17.27;;;18.50;92.30;;;;;;5047264;28;20055;-67
2021/08/13 06:42:23;;;;;;;19.93;17.30;;;18.60;92.30;;;;;;5047707;28;20044;-68
2021/08/13 06:44:49;;;;;;;18.57;16.53;;;18.70;92.20;;;;;;5051062;28;20076;-67
2021/08/13 06:47:14;;;;;;;17.57;15.67;;;18.80;92.10;;;;;;5050710;28;20072;-68
2021/08/13 06:49:40;;;;;;;16.90;14.87;;;18.80;92.00;;;;;;5050976;28;20140;-68
2021/08/13 06:52:09;;;;;;;17.10;15.27;;;18.80;91.90;;;;;;5050044;28;20049;-67
2021/08/13 06:54:35;;;;;;;18.23;14.13;;;18.90;91.70;;;;;;5051329;28;20056;-67
2021/08/13 06:57:01;;;;;;;15.77;13.80;;;18.90;91.60;;;;;;5050407;28;20053;-67
2021/08/13 06:59:27;;;;;;;15.63;14.03;;;19.00;91.60;;;;;;5050127;28;20049;-67
2021/08/13 07:01:53;;;;;;;17.07;13.67;;;19.00;91.50;;;;;;5051187;28;20045;-66
2021/08/13 07:04:19;;;;;;;16.47;13.13;;;19.10;91.50;;;;;;5050941;28;20443;-67
2021/08/13 07:06:44;;;;;;;15.63;13.93;;;19.20;91.40;;;;;;5048312;28;20056;-67
2021/08/13 07:09:10;;;;;;;17.10;13.57;;;19.20;91.30;;;;;;5048644;28;20732;-68
2021/08/13 07:11:35;;;;;;;15.77;13.30;;;19.30;91.10;;;;;;5049434;28;20067;-66
2021/08/13 07:14:02;;;;;;;16.73;13.83;;;19.30;91.00;;;;;;5047676;28;20053;-66
2021/08/13 07:16:27;;;;;;;16.30;13.47;;;19.30;90.90;;;;;;5048817;28;20122;-66
2021/08/13 07:18:53;;;;;;;16.27;13.77;;;19.40;90.70;;;;;;5050722;28;20118;-67
2021/08/13 07:21:18;;;;;;;18.40;14.80;;;19.40;90.60;;;;;;5049441;28;20490;-67
2021/08/13 07:23:47;;;;;;;16.03;14.27;;;19.50;90.50;;;;;;5050299;28;20041;-66
2021/08/13 07:26:12;;;;;;;19.43;15.40;;;19.60;90.50;;;;;;5049137;28;20435;-66
2021/08/13 07:28:39;;;;;;;18.10;13.93;;;19.60;90.50;;;;;;5050726;28;20071;-67
2021/08/13 07:31:04;;;;;;;18.80;15.37;;;19.70;90.40;;;;;;5050106;28;20056;-70
2021/08/13 07:33:30;;;;;;;18.77;13.70;;;19.80;90.40;;;;;;5049615;28;20117;-68
2021/08/13 07:35:56;;;;;;;19.47;13.63;;;19.80;90.20;;;;;;5049687;28;20103;-69
2021/08/13 07:38:22;;;;;;;18.17;14.03;;;19.90;90.10;;;;;;5048878;28;20128;-68
2021/08/13 07:40:47;;;;;;;15.00;12.80;;;19.90;90.10;;;;;;5048455;28;20049;-67
2021/08/13 07:43:14;;;;;;;15.47;13.90;;;20.00;90.10;;;;;;5049033;28;20055;-68
2021/08/13 07:45:39;;;;;;;17.73;14.90;;;20.00;90.00;;;;;;5049725;28;20136;-69
2021/08/13 07:48:05;;;;;;;16.83;15.07;;;20.10;89.80;;;;;;5048668;28;20444;-68
2021/08/13 07:50:31;;;;;;;16.83;13.73;;;20.10;89.40;;;;;;5049306;28;20386;-66
2021/08/13 07:52:56;;;;;;;16.80;12.97;;;20.20;89.20;;;;;;5051215;28;20045;-68
2021/08/13 07:55:22;;;;;;;16.20;13.53;;;20.20;89.20;;;;;;5052506;28;20053;-68
2021/08/13 07:57:49;;;;;;;14.47;12.80;;;20.20;89.40;;;;;;5053470;28;20048;-68
2021/08/13 08:00:15;;;;;;;16.03;13.23;;;20.20;89.40;;;;;;5053189;28;20129;-68
2021/08/13 08:02:41;;;;;;;15.57;12.83;;;20.30;89.30;;;;;;5052721;28;20127;-68
2021/08/13 08:05:07;;;;;;;17.00;12.30;;;20.30;89.10;;;;;;5053196;28;20504;-68
2021/08/13 08:07:34;;;;;;;14.77;12.70;;;20.40;89.10;;;;;;5053435;28;20420;-68
2021/08/13 08:10:00;;;;;;;14.00;12.03;;;20.50;89.20;;;;;;5052297;28;20509;-68
2021/08/13 08:12:25;;;;;;;16.40;12.87;;;20.50;88.80;;;;;;5053259;28;20053;-67
2021/08/13 08:14:51;;;;;;;16.33;13.30;;;20.50;88.80;;;;;;5053240;28;20095;-67
2021/08/13 08:17:17;;;;;;;13.30;11.70;;;20.60;88.80;;;;;;5052077;28;20087;-68
2021/08/13 08:19:43;;;;;;;14.47;12.60;;;20.60;88.40;;;;;;5053382;28;20049;-68
2021/08/13 08:22:08;;;;;;;14.07;10.33;;;20.60;87.80;;;;;;5052702;28;20409;-68
2021/08/13 08:24:34;;;;;;;14.57;10.80;;;20.70;87.50;;;;;;5052304;28;20462;-68
2021/08/13 08:27:00;;;;;;;12.30;10.43;;;20.70;87.70;;;;;;5052561;28;20052;-68
2021/08/13 08:29:25;;;;;;;13.15;10.73;;;20.80;87.30;;;;;;5052002;28;20068;-68
2021/08/13 08:31:54;;;;;;;14.40;10.52;;;20.90;86.90;;;;;;5052647;28;20102;-68
2021/08/13 08:34:19;;;;;;;10.97;8.93;;;20.90;87.40;;;;;;5052520;28;20125;-68
2021/08/13 08:36:45;;;;;;;11.07;8.95;;;20.90;86.20;;;;;;5051851;28;20460;-68
2021/08/13 08:39:11;;;;;;;14.10;10.32;;;20.90;85.90;;;;;;5052589;28;20520;-69
2021/08/13 08:41:37;;;;;;;16.60;9.75;;;21.00;86.10;;;;;;5052590;28;20052;-67
2021/08/13 08:44:03;;;;;;;12.73;10.70;;;21.00;85.80;;;;;;5051550;28;20071;-67
2021/08/13 08:46:30;;;;;;;12.02;9.68;;;21.00;85.50;;;;;;5052442;28;20466;-67
2021/08/13 08:48:56;;;;;;;14.38;9.63;;;21.10;85.50;;;;;;5052150;28;20059;-68
2021/08/13 08:51:24;;;;;;;11.47;9.67;;;21.10;85.40;;;;;;5051148;28;20540;-68
2021/08/13 08:53:52;;;;;;;12.77;10.00;;;21.00;85.00;;;;;;5052465;28;20095;-67
2021/08/13 08:56:20;;;;;;;12.63;10.68;;;21.00;85.30;;;;;;5052174;28;20061;-67
2021/08/13 08:58:48;;;;;;;15.98;10.52;;;21.00;85.40;;;;;;5051492;28;20139;-68
2021/08/13 09:01:16;;;;;;;12.85;10.75;;;21.10;85.40;;;;;;5051994;28;20052;-69
2021/08/13 09:03:46;;;;;;;13.93;9.77;;;21.20;85.20;;;;;;5051823;28;20126;-68
2021/08/13 09:06:14;;;;;;;14.10;9.80;;;21.20;85.40;;;;;;5050527;28;20510;-68
2021/08/13 09:08:40;;;;;;;12.02;9.80;;;21.30;85.20;;;;;;5052250;28;20057;-68
2021/08/13 09:11:07;;;;;;;11.75;10.27;;;21.40;84.70;;;;;;5051856;28;20119;-69
2021/08/13 09:13:38;;;;;;;14.45;10.27;;;21.40;84.70;;;;;;5051181;28;20120;-68
2021/08/13 09:16:10;;;;;;;;;;;21.30;84.80;;;;;;5051985;28;20057;-67
2021/08/13 09:18:37;;;;;;;15.55;11.20;;;21.30;85.10;;;;;;5051176;28;20354;-68
2021/08/13 09:21:03;;;;;;;14.10;12.48;;;21.30;85.30;;;;;;5051754;28;20114;-69
2021/08/13 09:23:33;;;;;;;14.43;12.23;;;21.20;85.00;;;;;;5051918;28;20090;-68
2021/08/13 09:26:10;;;;;;;15.75;12.05;;;21.20;84.70;;;;;;5050865;28;20045;-68
2021/08/13 09:29:01;;;;;;;13.52;11.20;;;21.10;84.60;;;;;;5052078;28;20120;-68
2021/08/13 09:31:31;;;;;;;13.45;11.27;;;21.00;84.80;;;;;;5051773;28;20124;-67
2021/08/13 09:34:12;;;;;;;13.70;10.50;;;21.00;85.30;;;;;;5050751;28;20060;-67
2021/08/13 09:36:51;;;;;;;11.90;10.60;;;21.00;85.50;;;;;;5051467;28;20062;-68
2021/08/13 09:39:23;;;;;;;11.55;9.48;;;21.10;85.40;;;;;;5050574;28;20580;-68
2021/08/13 09:41:51;;;;;;;11.85;9.68;;;21.10;84.90;;;;;;5050219;28;20072;-68
2021/08/13 09:44:31;;;;;;;13.60;10.63;;;21.10;85.10;;;;;;5049757;28;20397;-68
2021/08/13 09:47:02;;;;;;;11.75;10.07;;;21.10;85.10;;;;;;5050724;28;20048;-68
2021/08/13 09:49:29;;;;;;;11.18;9.82;;;21.00;85.30;;;;;;5051331;28;20052;-67
2021/08/13 09:51:56;;;;;;;12.52;9.60;;;20.90;85.50;;;;;;5051505;28;20083;-67
2021/08/13 09:54:27;;;;;;;12.68;9.85;;;20.80;86.10;;;;;;5050265;28;20041;-69
2021/08/13 09:56:52;;;;;;;13.95;10.48;;;20.90;86.50;;;;;;5051388;28;20048;-68
2021/08/13 09:59:20;;;;;;;13.38;10.50;;;21.00;86.30;;;;;;5050877;28;20405;-67
2021/08/13 10:01:50;;;;;;;11.68;10.38;;;20.90;86.30;;;;;;5050435;28;20051;-68
2021/08/13 10:04:31;;;;;;;13.47;11.23;;;20.90;86.50;;;;;;5050816;28;20055;-68
2021/08/13 10:06:57;;;;;;;12.85;11.05;;;21.00;86.50;;;;;;5051165;28;20052;-68
2021/08/13 10:09:24;;;;;;;14.65;11.93;;;21.00;86.10;;;;;;5050187;28;20141;-68
2021/08/13 10:11:57;;;;;;;12.20;10.50;;;21.10;85.90;;;;;;5051155;28;20052;-70
2021/08/13 10:14:42;;;;;;;13.32;11.73;;;21.10;85.40;;;;;;5050806;28;20077;-68
2021/08/13 10:17:16;;;;;;;12.32;10.32;;;21.10;84.70;;;;;;5052478;28;20069;-68
2021/08/13 10:19:43;;;;;;;12.88;10.32;;;21.10;84.90;;;;;;5055632;28;20076;-69
2021/08/13 10:22:09;;;;;;;13.27;9.88;;;20.90;84.50;;;;;;5054435;28;20052;-69
2021/08/13 10:24:36;;;;;;;11.25;10.05;;;20.90;84.40;;;;;;5055217;28;20049;-68
2021/08/13 10:27:03;;;;;;;12.82;9.90;;;20.80;84.40;;;;;;5054527;28;20107;-68
2021/08/13 10:29:29;;;;;;;13.35;9.65;;;20.80;84.40;;;;;;5054485;28;20073;-69
2021/08/13 10:31:56;;;;;;;11.93;9.18;;;20.80;84.30;;;;;;5055054;28;20077;-69
2021/08/13 10:34:22;;;;;;;11.82;9.13;;;20.80;84.00;;;;;;5054527;28;20065;-69
2021/08/13 10:36:51;;;;;;;12.00;8.73;;;21.00;84.00;;;;;;5054473;28;20407;-70
2021/08/13 10:39:18;;;;;;;10.65;7.40;;;21.00;83.20;;;;;;5054968;28;20068;-69
2021/08/13 10:41:48;;;;;;;9.60;6.47;;;21.10;82.20;;;;;;5055009;28;20409;-69
2021/08/13 10:44:18;;;;;;;8.93;6.70;;;21.00;80.90;;;;;;5054547;28;20041;-69
2021/08/13 10:46:46;;;;;;;10.07;6.60;;;21.00;80.50;;;;;;5054909;28;20462;-68
2021/08/13 10:49:14;;;;;;;8.57;6.57;;;21.00;80.40;;;;;;5054710;28;20041;-68
2021/08/13 10:51:40;;;;;;;10.05;6.35;;;21.00;80.00;;;;;;5054205;28;20053;-68
2021/08/13 10:54:12;;;;;;;9.10;6.07;;;21.00;80.00;;;;;;5055103;28;20056;-68
2021/08/13 10:56:45;;;;;;;8.35;5.50;;;21.10;79.00;;;;;;5054882;28;20132;-69
2021/08/13 10:59:11;;;;;;;7.57;5.10;;;21.20;78.50;;;;;;5053834;28;20049;-69
2021/08/13 11:02:10;;;;;;;8.45;5.07;;;21.20;77.00;;;;;;5054878;28;20049;-71
2021/08/13 11:04:40;;;;;;;6.72;4.53;;;21.20;73.50;;;;;;5053745;28;20045;-69
2021/08/13 11:07:06;;;;;;;9.50;5.35;;;21.30;74.80;;;;;;5054389;28;20079;-69
2021/08/13 11:09:35;;;;;;;8.25;4.72;;;21.30;74.60;;;;;;5054644;28;20053;-70
2021/08/13 11:12:02;;;;;;;9.48;5.10;;;21.40;74.50;;;;;;5053509;28;20094;-69
2021/08/13 11:14:35;;;;;;;6.93;4.70;;;21.40;73.20;;;;;;5054462;28;20056;-71
2021/08/13 11:17:02;;;;;;;12.30;4.80;;;21.50;72.60;;;;;;5053986;28;20049;-68
2021/08/13 11:19:48;;;;;;;8.70;4.75;;;21.60;72.70;;;;;;5053969;28;20045;-69
2021/08/13 11:22:32;;;;;;;11.00;4.88;;;21.60;72.90;;;;;;5053721;28;20114;-69
2021/08/13 11:24:58;;;;;;;8.23;4.45;;;21.60;71.70;;;;;;5054429;28;20053;-68
2021/08/13 11:27:24;;;;;;;9.48;4.10;;;21.70;72.60;;;;;;5053146;28;20048;-70
2021/08/13 11:29:50;;;;;;;10.23;5.05;;;21.60;72.60;;;;;;5053491;28;20155;-69
2021/08/13 11:32:18;;;;;;;6.88;4.18;;;21.60;72.90;;;;;;5053031;28;20053;-69
2021/08/13 11:34:51;;;;;;;8.23;4.88;;;21.80;73.00;;;;;;5054332;28;20114;-69
2021/08/13 11:37:35;;;;;;;9.48;3.92;;;21.90;73.00;;;;;;5053659;28;20099;-68
2021/08/13 11:40:13;;;;;;;8.98;4.13;;;22.00;72.00;;;;;;5052630;28;20551;-68
2021/08/13 11:42:49;;;;;;;9.32;4.35;;;22.10;71.50;;;;;;5053791;28;20052;-69
2021/08/13 11:45:16;;;;;;;8.88;4.18;;;22.20;71.50;;;;;;5053577;28;20059;-68
2021/08/13 11:47:52;;;;;;;7.82;4.70;;;22.20;71.10;;;;;;5052887;28;20048;-68
2021/08/13 11:50:18;;;;;;;7.15;4.13;;;22.10;70.50;;;;;;5053312;28;20110;-68
2021/08/13 11:52:48;;;;;;;10.75;3.75;;;22.10;71.00;;;;;;5053990;28;20056;-69
2021/08/13 11:55:29;;;;;;;6.55;3.42;;;22.10;69.90;;;;;;5052793;28;20053;-68
2021/08/13 11:58:21;;;;;;;5.97;3.17;;;22.20;68.70;;;;;;5053893;28;20053;-71
2021/08/13 12:00:47;;;;;;;6.75;3.10;;;22.20;68.60;;;;;;5052858;28;20052;-69
2021/08/13 12:03:12;;;;;;;7.63;3.70;;;22.20;68.20;;;;;;5053350;28;20132;-68
2021/08/13 12:05:41;;;;;;;7.82;3.63;;;22.20;68.00;;;;;;5053321;28;20045;-69
2021/08/13 12:08:09;;;;;;;6.30;3.50;;;22.20;67.30;;;;;;5052341;28;20072;-69
2021/08/13 12:10:36;;;;;;;4.75;3.25;;;22.20;67.80;;;;;;5053407;28;20086;-68
2021/08/13 12:13:09;;;;;;;7.32;3.00;;;22.10;68.00;;;;;;5053069;28;20072;-68
2021/08/13 12:15:37;;;;;;;7.80;2.83;;;22.00;67.40;;;;;;5045451;28;20048;-66
2021/08/13 12:18:05;;;;;;;7.35;3.08;;;22.00;67.50;;;;;;5048653;28;20052;-68
2021/08/13 12:20:33;;;;;;;6.30;3.08;;;21.90;67.50;;;;;;5043748;28;20095;-68
2021/08/13 12:23:08;;;;;;;9.13;3.00;;;22.00;67.80;;;;;;5040079;28;20072;-67
2021/08/13 12:25:35;;;;;;;6.78;3.13;;;22.10;67.60;;;;;;5044049;28;20131;-67
2021/08/13 12:28:02;;;;;;;7.22;2.80;;;22.10;67.60;;;;;;5034292;28;20508;-67
2021/08/13 12:30:28;;;;;;;6.85;3.03;;;22.10;68.10;;;;;;5040301;28;20068;-70
2021/08/13 12:32:56;;;;;;;5.88;3.00;;;22.20;67.80;;;;;;5044408;28;20048;-70
2021/08/13 12:35:22;;;;;;;9.77;2.92;;;22.20;67.10;;;;;;5029362;28;20064;-69
2021/08/13 12:37:48;;;;;;;8.55;2.92;;;22.10;66.10;;;;;;5034013;28;20121;-68